Time;durP1;ratioP1;P1;durP2;ratioP2;P2;SDS_P1;SDS_P2;PMS_P1;PMS_P2;Temp;Humidity;BMP_temperature;BMP_pressure;BME280_temperature;BME280_humidity;BME280_pressure;Samples;Min_cycle;Max_cycle;Signal;HPM_P1;HPM_P2
2021/11/07 00:01:51;;;;;;;10.50;6.93;;;8.70;99.90;;;;;;5056876;28;20742;-69
2021/11/07 00:04:30;;;;;;;8.90;6.70;;;8.70;99.90;;;;;;5060619;28;20746;-68
2021/11/07 00:07:10;;;;;;;9.20;5.93;;;8.70;99.90;;;;;;5060110;28;20213;-69
2021/11/07 00:09:41;;;;;;;8.57;6.30;;;8.60;99.90;;;;;;5061475;28;20204;-68
2021/11/07 00:12:15;;;;;;;11.37;7.37;;;8.60;99.90;;;;;;5038129;28;20298;-68
2021/11/07 00:14:46;;;;;;;11.60;7.73;;;8.50;99.90;;;;;;5051629;28;20237;-68
2021/11/07 00:17:13;;;;;;;10.37;7.27;;;8.60;99.90;;;;;;5056250;28;20288;-67
2021/11/07 00:19:43;;;;;;;10.43;7.37;;;8.40;99.90;;;;;;5059659;28;20216;-68
2021/11/07 00:22:15;;;;;;;10.57;7.07;;;8.40;99.90;;;;;;5053066;28;20198;-68
2021/11/07 00:24:46;;;;;;;11.23;7.20;;;8.40;99.90;;;;;;5051910;28;20219;-67
2021/11/07 00:27:22;;;;;;;11.33;7.00;;;8.30;99.90;;;;;;5053380;28;20596;-69
2021/11/07 00:29:56;;;;;;;11.13;7.20;;;8.30;99.90;;;;;;5059770;28;20276;-69
2021/11/07 00:32:27;;;;;;;10.13;7.30;;;8.20;99.90;;;;;;5059975;28;20620;-68
2021/11/07 00:37:38;;;;;;;12.43;6.90;;;8.10;99.90;;;;;;5036781;28;20206;-68
2021/11/07 00:40:17;;;;;;;10.57;7.00;;;8.10;99.90;;;;;;5053328;28;20209;-68
2021/11/07 00:42:51;;;;;;;13.27;8.43;;;8.10;99.90;;;;;;5038312;28;20212;-68
2021/11/07 00:45:31;;;;;;;10.20;7.67;;;8.00;99.90;;;;;;5062647;28;20627;-68
2021/11/07 00:48:10;;;;;;;10.60;7.43;;;8.00;99.90;;;;;;5054922;28;20198;-68
2021/11/07 00:50:49;;;;;;;13.03;7.60;;;7.90;99.90;;;;;;5057197;28;20205;-69
2021/11/07 00:53:27;;;;;;;10.80;7.50;;;7.90;99.90;;;;;;5052063;28;20271;-67
2021/11/07 00:56:04;;;;;;;12.80;7.87;;;7.90;99.90;;;;;;5049542;28;20474;-67
2021/11/07 00:58:36;;;;;;;9.60;6.97;;;7.90;99.90;;;;;;5036638;28;20209;-68
2021/11/07 01:01:06;;;;;;;10.83;7.73;;;7.80;99.90;;;;;;5061966;28;20199;-67
2021/11/07 01:03:33;;;;;;;11.03;7.50;;;7.80;99.90;;;;;;5055292;28;20585;-67
2021/11/07 01:06:00;;;;;;;12.53;8.07;;;7.70;99.90;;;;;;5054140;28;20896;-68
2021/11/07 01:08:28;;;;;;;9.40;7.53;;;7.70;99.90;;;;;;5050982;28;20306;-68
2021/11/07 01:10:57;;;;;;;12.87;8.80;;;7.70;99.90;;;;;;5058123;28;20286;-68
2021/11/07 01:13:25;;;;;;;13.63;7.67;;;7.70;99.90;;;;;;5051617;28;20676;-68
2021/11/07 01:15:52;;;;;;;14.63;8.40;;;7.60;99.90;;;;;;5057151;28;20209;-69
2021/11/07 01:18:19;;;;;;;12.47;8.37;;;7.70;99.90;;;;;;5054789;28;20217;-68
2021/11/07 01:20:47;;;;;;;11.70;8.40;;;7.60;99.90;;;;;;5061341;28;20572;-68
2021/11/07 01:23:20;;;;;;;16.40;8.87;;;7.60;99.90;;;;;;5051975;28;20241;-68
2021/11/07 01:25:50;;;;;;;11.97;8.53;;;7.60;99.90;;;;;;5049310;28;20213;-69
2021/11/07 01:28:18;;;;;;;12.13;8.87;;;7.60;99.90;;;;;;5061593;28;20205;-68
2021/11/07 01:30:47;;;;;;;13.67;9.27;;;7.50;99.90;;;;;;5059907;28;20233;-67
2021/11/07 01:33:18;;;;;;;15.60;9.83;;;7.50;99.90;;;;;;5057142;28;20232;-67
2021/11/07 01:35:50;;;;;;;15.40;9.63;;;7.50;99.90;;;;;;5058751;28;20193;-68
2021/11/07 01:38:23;;;;;;;14.50;9.87;;;7.50;99.90;;;;;;5062749;28;20202;-69
2021/11/07 01:41:00;;;;;;;13.27;9.03;;;7.50;99.90;;;;;;5055447;28;20214;-67
2021/11/07 01:43:27;;;;;;;14.03;10.03;;;7.50;99.90;;;;;;5054429;28;20213;-67
2021/11/07 01:46:03;;;;;;;14.63;9.93;;;7.40;99.90;;;;;;5064172;28;20260;-69
2021/11/07 01:48:33;;;;;;;14.17;9.57;;;7.40;99.90;;;;;;5063197;28;20287;-67
2021/11/07 01:51:01;;;;;;;13.90;9.50;;;7.40;99.90;;;;;;5056359;28;20260;-67
2021/11/07 01:53:32;;;;;;;13.20;9.73;;;7.30;99.90;;;;;;5070774;28;20216;-67
2021/11/07 01:56:03;;;;;;;14.13;9.37;;;7.30;99.90;;;;;;5069272;28;20324;-67
2021/11/07 01:58:32;;;;;;;18.43;11.20;;;7.30;99.90;;;;;;5054366;28;20210;-68
2021/11/07 02:00:59;;;;;;;17.00;10.93;;;7.30;99.90;;;;;;5056970;28;20853;-68
2021/11/07 02:03:27;;;;;;;14.63;10.40;;;7.30;99.90;;;;;;5064480;28;20604;-67
2021/11/07 02:05:54;;;;;;;15.20;9.83;;;7.20;99.90;;;;;;5057293;28;20229;-67
2021/11/07 02:08:22;;;;;;;16.33;9.83;;;7.20;99.90;;;;;;5055688;28;20216;-67
2021/11/07 02:10:50;;;;;;;16.97;10.20;;;7.20;99.90;;;;;;5055098;28;20217;-68
2021/11/07 02:13:19;;;;;;;15.60;9.47;;;7.20;99.90;;;;;;5055415;28;20288;-68
2021/11/07 02:15:46;;;;;;;14.33;9.60;;;7.20;99.90;;;;;;5054610;28;20202;-67
2021/11/07 02:18:15;;;;;;;13.60;9.70;;;7.20;99.90;;;;;;5053868;28;20214;-67
2021/11/07 02:20:45;;;;;;;13.23;9.30;;;7.20;99.90;;;;;;5062311;28;20305;-68
2021/11/07 02:23:14;;;;;;;14.50;9.90;;;7.20;99.90;;;;;;5070554;28;20212;-67
2021/11/07 02:25:44;;;;;;;14.10;9.57;;;7.10;99.90;;;;;;5046401;28;20232;-67
2021/11/07 02:28:12;;;;;;;13.30;8.80;;;7.10;99.90;;;;;;5058858;28;20212;-67
2021/11/07 02:30:41;;;;;;;15.30;9.50;;;7.10;99.90;;;;;;5061405;28;20359;-67
2021/11/07 02:33:08;;;;;;;14.50;9.20;;;7.10;99.90;;;;;;5058046;28;20210;-67
2021/11/07 02:35:34;;;;;;;13.23;9.83;;;7.10;99.90;;;;;;5052617;28;20198;-67
2021/11/07 02:38:03;;;;;;;15.07;9.93;;;7.00;99.90;;;;;;5053294;28;20860;-66
2021/11/07 02:40:30;;;;;;;14.57;9.20;;;7.00;99.90;;;;;;5063517;28;20213;-67
2021/11/07 02:42:57;;;;;;;12.67;9.10;;;7.00;99.90;;;;;;5059681;28;20209;-66
2021/11/07 02:45:24;;;;;;;15.90;9.87;;;7.00;99.90;;;;;;5053613;28;20226;-66
2021/11/07 02:47:52;;;;;;;13.37;9.43;;;7.00;99.90;;;;;;5057159;28;20302;-67
2021/11/07 02:50:20;;;;;;;12.33;9.03;;;7.00;99.90;;;;;;5064990;28;20209;-67
2021/11/07 02:52:48;;;;;;;14.90;9.67;;;6.90;99.90;;;;;;5058156;28;20212;-67
2021/11/07 02:55:16;;;;;;;14.53;9.07;;;6.90;99.90;;;;;;5063159;28;20586;-68
2021/11/07 02:57:45;;;;;;;15.43;9.60;;;6.90;99.90;;;;;;5065531;28;20294;-67
2021/11/07 03:00:13;;;;;;;15.47;9.47;;;6.90;99.90;;;;;;5047422;28;20220;-66
2021/11/07 03:02:40;;;;;;;14.00;9.40;;;6.90;99.90;;;;;;5058389;28;20263;-67
2021/11/07 03:05:09;;;;;;;13.33;9.47;;;6.90;99.90;;;;;;5056388;28;20617;-68
2021/11/07 03:07:36;;;;;;;11.97;8.90;;;6.80;99.90;;;;;;5047045;28;20206;-67
2021/11/07 03:10:05;;;;;;;12.67;8.80;;;6.80;99.90;;;;;;5056458;28;20209;-67
2021/11/07 03:12:33;;;;;;;14.37;8.73;;;6.80;99.90;;;;;;5061660;28;20219;-67
2021/11/07 03:15:00;;;;;;;15.57;9.93;;;6.80;99.90;;;;;;5066114;28;20205;-68
2021/11/07 03:17:28;;;;;;;13.90;8.50;;;6.80;99.90;;;;;;5062555;28;20237;-67
2021/11/07 03:19:55;;;;;;;13.63;9.37;;;6.70;99.90;;;;;;5062395;28;20285;-67
2021/11/07 03:22:24;;;;;;;14.20;9.20;;;6.70;99.90;;;;;;5055862;28;20216;-67
2021/11/07 03:24:54;;;;;;;15.70;9.77;;;6.70;99.90;;;;;;5052461;28;20206;-67
2021/11/07 03:27:26;;;;;;;15.00;8.90;;;6.70;99.90;;;;;;5065638;28;20319;-67
2021/11/07 03:29:57;;;;;;;18.30;10.67;;;6.60;99.90;;;;;;5064930;28;20282;-67
2021/11/07 03:32:25;;;;;;;16.60;9.73;;;6.60;99.90;;;;;;5052874;28;20240;-67
2021/11/07 03:34:55;;;;;;;17.87;9.93;;;6.60;99.90;;;;;;5064880;28;20570;-66
2021/11/07 03:37:25;;;;;;;14.23;9.17;;;6.60;99.90;;;;;;5053716;28;20624;-66
2021/11/07 03:39:54;;;;;;;15.93;9.37;;;6.60;99.90;;;;;;5059266;28;20646;-66
2021/11/07 03:42:23;;;;;;;14.63;8.90;;;6.60;99.90;;;;;;5066890;28;20696;-68
2021/11/07 03:44:51;;;;;;;16.93;10.00;;;6.50;99.90;;;;;;5061642;28;20256;-68
2021/11/07 03:47:20;;;;;;;15.33;8.60;;;6.50;99.90;;;;;;5054520;28;20235;-67
2021/11/07 03:49:46;;;;;;;14.30;9.90;;;6.50;99.90;;;;;;5056385;28;20206;-67
2021/11/07 03:52:14;;;;;;;14.87;9.53;;;6.50;99.90;;;;;;5058438;28;20284;-68
2021/11/07 03:54:42;;;;;;;14.33;10.07;;;6.40;99.90;;;;;;5062889;28;20209;-67
2021/11/07 03:57:11;;;;;;;16.37;9.60;;;6.40;99.90;;;;;;5051888;28;20222;-67
2021/11/07 03:59:39;;;;;;;17.03;8.63;;;6.40;99.90;;;;;;5054906;28;20240;-68
2021/11/07 04:02:06;;;;;;;13.03;8.27;;;6.40;99.90;;;;;;5053495;28;20213;-67
2021/11/07 04:04:34;;;;;;;12.83;9.10;;;6.30;99.90;;;;;;5057206;28;20234;-67
2021/11/07 04:07:01;;;;;;;12.93;8.70;;;6.30;99.90;;;;;;5051548;28;20638;-68
2021/11/07 04:09:28;;;;;;;13.97;9.30;;;6.40;99.90;;;;;;5052105;28;20297;-68
2021/11/07 04:11:55;;;;;;;15.37;9.00;;;6.40;99.90;;;;;;5053041;28;20666;-68
2021/11/07 04:14:22;;;;;;;14.87;9.10;;;6.30;99.90;;;;;;5060339;28;20216;-67
2021/11/07 04:16:49;;;;;;;17.30;10.23;;;6.30;99.90;;;;;;5054976;28;20204;-67
2021/11/07 04:19:16;;;;;;;14.50;9.20;;;6.30;99.90;;;;;;5057839;28;20513;-67
2021/11/07 04:21:48;;;;;;;15.20;9.17;;;6.30;99.90;;;;;;5053649;28;20565;-68
2021/11/07 04:24:15;;;;;;;15.43;9.27;;;6.20;99.90;;;;;;5052936;28;20631;-67
2021/11/07 04:26:42;;;;;;;15.70;9.30;;;6.20;99.90;;;;;;5055825;28;20237;-67
2021/11/07 04:29:09;;;;;;;15.87;9.17;;;6.20;99.90;;;;;;5053472;28;20206;-67
2021/11/07 04:31:36;;;;;;;13.83;10.00;;;6.20;99.90;;;;;;5062286;28;20328;-66
2021/11/07 04:34:03;;;;;;;15.90;9.90;;;6.20;99.90;;;;;;5043679;28;20605;-67
2021/11/07 04:36:31;;;;;;;18.87;10.03;;;6.20;99.90;;;;;;5051110;28;20213;-67
2021/11/07 04:38:59;;;;;;;13.43;9.67;;;6.30;99.90;;;;;;5051255;28;20662;-67
2021/11/07 04:41:27;;;;;;;16.57;9.07;;;6.20;99.90;;;;;;5059430;28;20658;-67
2021/11/07 04:43:54;;;;;;;14.03;9.40;;;6.20;99.90;;;;;;5057333;28;20647;-67
2021/11/07 04:46:20;;;;;;;14.30;9.67;;;6.20;99.90;;;;;;5050492;28;20624;-67
2021/11/07 04:48:49;;;;;;;17.30;10.07;;;6.20;99.90;;;;;;5056431;28;20662;-66
2021/11/07 04:51:16;;;;;;;15.53;9.73;;;6.20;99.90;;;;;;5057716;28;20205;-67
2021/11/07 04:53:45;;;;;;;15.90;10.33;;;6.10;99.90;;;;;;5058395;28;20206;-67
2021/11/07 04:56:13;;;;;;;18.27;11.27;;;6.10;99.90;;;;;;5049647;28;20236;-67
2021/11/07 04:58:40;;;;;;;19.77;11.23;;;6.10;99.90;;;;;;5050118;28;20566;-67
2021/11/07 05:01:08;;;;;;;18.70;11.33;;;6.00;99.90;;;;;;5051551;28;21686;-67
2021/11/07 05:03:35;;;;;;;17.87;11.10;;;6.00;99.90;;;;;;5044635;28;20218;-67
2021/11/07 05:06:01;;;;;;;16.73;10.87;;;6.00;99.90;;;;;;5055032;28;20643;-67
2021/11/07 05:08:28;;;;;;;18.27;12.00;;;5.90;99.90;;;;;;5061256;28;20206;-68
2021/11/07 05:10:55;;;;;;;16.90;11.60;;;5.90;99.90;;;;;;5050376;28;20210;-68
2021/11/07 05:13:23;;;;;;;18.30;11.00;;;5.80;99.90;;;;;;5049921;28;20561;-67
2021/11/07 05:15:50;;;;;;;19.93;12.07;;;5.70;99.90;;;;;;5053441;28;20220;-67
2021/11/07 05:18:18;;;;;;;19.87;12.43;;;5.70;99.90;;;;;;5053769;28;20231;-68
2021/11/07 05:20:45;;;;;;;20.03;12.40;;;5.70;99.90;;;;;;5051423;28;20212;-67
2021/11/07 05:23:12;;;;;;;20.60;12.37;;;5.60;99.90;;;;;;5063209;28;20209;-67
2021/11/07 05:25:39;;;;;;;20.43;12.40;;;5.60;99.90;;;;;;5061673;28;20305;-67
2021/11/07 05:28:07;;;;;;;18.93;12.20;;;5.50;99.90;;;;;;5042497;28;20194;-67
2021/11/07 05:30:35;;;;;;;17.27;11.80;;;5.50;99.90;;;;;;5052508;28;20240;-67
2021/11/07 05:33:03;;;;;;;18.43;11.93;;;5.50;99.90;;;;;;5057885;28;20300;-67
2021/11/07 05:35:29;;;;;;;17.63;12.27;;;5.50;99.90;;;;;;5054570;28;20300;-67
2021/11/07 05:37:56;;;;;;;17.03;11.70;;;5.40;99.90;;;;;;5057928;28;20691;-67
2021/11/07 05:40:23;;;;;;;20.67;12.30;;;5.40;99.90;;;;;;5054504;28;20214;-68
2021/11/07 05:42:51;;;;;;;19.93;11.60;;;5.30;99.90;;;;;;5049744;28;20206;-66
2021/11/07 05:45:19;;;;;;;20.43;11.43;;;5.40;99.90;;;;;;5050056;28;20320;-66
2021/11/07 05:47:50;;;;;;;18.23;11.93;;;5.30;99.90;;;;;;5061353;28;20217;-68
2021/11/07 05:50:18;;;;;;;19.47;11.17;;;5.30;99.90;;;;;;5053116;28;20205;-67
2021/11/07 05:52:45;;;;;;;23.17;13.20;;;5.20;99.90;;;;;;5059784;28;20202;-68
2021/11/07 05:55:12;;;;;;;20.07;13.20;;;5.20;99.90;;;;;;5056754;28;20210;-67
2021/11/07 05:57:40;;;;;;;21.57;13.13;;;5.10;99.90;;;;;;5053751;28;20225;-67
2021/11/07 06:00:08;;;;;;;20.57;12.73;;;5.10;99.90;;;;;;5049307;28;20460;-67
2021/11/07 06:02:35;;;;;;;22.33;13.53;;;5.10;99.90;;;;;;5050689;28;20210;-67
2021/11/07 06:05:04;;;;;;;22.43;13.67;;;5.10;99.90;;;;;;5053214;28;20206;-67
2021/11/07 06:07:31;;;;;;;20.50;12.77;;;5.10;99.90;;;;;;5050204;28;20581;-68
2021/11/07 06:09:59;;;;;;;22.33;12.90;;;5.10;99.90;;;;;;5050550;28;20218;-67
2021/11/07 06:12:26;;;;;;;23.03;14.30;;;5.10;99.90;;;;;;5053979;28;20210;-67
2021/11/07 06:14:53;;;;;;;23.53;13.83;;;5.10;99.90;;;;;;5054023;28;20308;-67
2021/11/07 06:17:20;;;;;;;19.27;12.47;;;5.10;99.90;;;;;;5054219;28;20655;-66
2021/11/07 06:19:47;;;;;;;20.37;13.27;;;5.20;99.90;;;;;;5063155;28;20214;-66
2021/11/07 06:22:16;;;;;;;22.43;13.17;;;5.20;99.90;;;;;;5053624;28;20213;-66
2021/11/07 06:24:43;;;;;;;21.97;13.17;;;5.30;99.90;;;;;;5057533;28;20204;-67
2021/11/07 06:27:10;;;;;;;23.03;13.53;;;5.30;99.90;;;;;;5056488;28;20267;-67
2021/11/07 06:29:39;;;;;;;20.47;12.67;;;5.40;99.90;;;;;;5052608;28;20244;-67
2021/11/07 06:32:07;;;;;;;20.27;13.33;;;5.50;99.90;;;;;;5056381;28;20292;-67
2021/11/07 06:34:36;;;;;;;19.20;12.97;;;5.60;99.90;;;;;;5059707;28;20229;-67
2021/11/07 06:37:05;;;;;;;22.67;12.87;;;5.70;99.90;;;;;;5064970;28;20205;-69
2021/11/07 06:39:33;;;;;;;19.13;12.50;;;5.80;99.90;;;;;;5054829;28;20717;-67
2021/11/07 06:42:00;;;;;;;19.30;13.20;;;6.00;99.90;;;;;;5054513;28;20206;-72
2021/11/07 06:44:27;;;;;;;19.07;12.50;;;6.20;99.90;;;;;;5041575;28;20583;-70
2021/11/07 06:46:54;;;;;;;20.27;12.90;;;6.30;99.90;;;;;;5060614;28;20240;-70
2021/11/07 06:49:22;;;;;;;21.27;13.77;;;6.50;99.90;;;;;;5054037;28;20213;-71
2021/11/07 06:51:49;;;;;;;19.93;12.60;;;6.70;99.90;;;;;;5054959;28;20206;-72
2021/11/07 06:54:16;;;;;;;19.37;12.73;;;6.80;99.90;;;;;;5048997;28;20659;-71
2021/11/07 06:56:44;;;;;;;22.00;12.67;;;7.00;99.90;;;;;;5047203;28;20230;-73
2021/11/07 06:59:11;;;;;;;19.80;12.40;;;7.20;99.90;;;;;;5053935;28;20213;-72
2021/11/07 07:01:38;;;;;;;20.93;12.53;;;7.20;99.90;;;;;;5051357;28;20205;-74
2021/11/07 07:04:05;;;;;;;18.90;12.67;;;7.30;99.90;;;;;;5056238;28;20202;-73
2021/11/07 07:06:34;;;;;;;19.07;11.67;;;7.40;99.90;;;;;;5057223;28;20209;-71
2021/11/07 07:09:04;;;;;;;18.30;12.40;;;7.50;99.90;;;;;;5050160;28;20265;-69
2021/11/07 07:11:34;;;;;;;22.47;13.47;;;7.50;99.90;;;;;;5049550;28;20217;-70
2021/11/07 07:14:05;;;;;;;19.03;12.10;;;7.40;99.90;;;;;;5050887;28;20697;-70
2021/11/07 07:16:42;;;;;;;19.37;11.10;;;7.30;99.90;;;;;;5051252;28;20221;-71
2021/11/07 07:19:26;;;;;;;18.97;11.67;;;7.30;99.90;;;;;;5055925;28;20659;-71
2021/11/07 07:22:08;;;;;;;19.53;12.23;;;7.20;99.90;;;;;;5052518;28;20201;-69
2021/11/07 07:24:51;;;;;;;15.10;10.87;;;7.30;99.90;;;;;;5044775;28;20218;-68
2021/11/07 07:27:52;;;;;;;18.60;11.70;;;7.50;99.90;;;;;;5052267;28;20717;-70
2021/11/07 07:33:25;;;;;;;18.00;10.67;;;7.70;99.90;;;;;;5044107;28;20443;-71
2021/11/07 07:35:52;;;;;;;15.83;10.03;;;7.80;99.90;;;;;;5054152;28;20205;-71
2021/11/07 07:38:19;;;;;;;15.40;10.27;;;7.80;99.90;;;;;;5054322;28;20618;-71
2021/11/07 07:40:46;;;;;;;17.43;10.53;;;7.80;99.90;;;;;;5054098;28;20213;-70
2021/11/07 07:43:13;;;;;;;14.50;9.47;;;7.80;99.90;;;;;;5048763;28;20233;-70
2021/11/07 07:45:42;;;;;;;13.90;9.50;;;7.70;99.90;;;;;;5053490;28;20308;-68
2021/11/07 07:48:09;;;;;;;13.83;9.63;;;7.80;99.90;;;;;;5045878;28;20364;-69
2021/11/07 07:50:39;;;;;;;15.83;10.23;;;7.70;99.90;;;;;;5045161;28;20589;-71
2021/11/07 07:53:06;;;;;;;14.40;9.77;;;7.70;99.90;;;;;;5050120;28;20202;-70
2021/11/07 07:55:34;;;;;;;13.47;8.77;;;7.80;99.90;;;;;;5052592;28;20297;-70
2021/11/07 07:58:01;;;;;;;14.10;9.00;;;7.80;99.90;;;;;;5049768;28;20644;-69
2021/11/07 08:00:28;;;;;;;14.47;8.43;;;7.90;99.90;;;;;;5053573;28;20213;-71
2021/11/07 08:02:56;;;;;;;13.40;8.47;;;7.90;99.90;;;;;;5052417;28;20645;-70
2021/11/07 08:05:24;;;;;;;13.73;9.20;;;8.00;99.90;;;;;;5057730;28;20216;-70
2021/11/07 08:07:51;;;;;;;12.30;8.67;;;8.10;99.90;;;;;;5057915;28;20268;-70
2021/11/07 08:10:18;;;;;;;14.93;9.07;;;8.20;99.90;;;;;;5049148;28;20292;-71
2021/11/07 08:12:45;;;;;;;14.10;8.53;;;8.20;99.90;;;;;;5056924;28;20415;-71
2021/11/07 08:15:14;;;;;;;12.20;7.80;;;8.30;99.90;;;;;;5055139;28;20208;-70
2021/11/07 08:17:41;;;;;;;11.80;8.40;;;8.50;99.90;;;;;;5050733;28;20221;-70
2021/11/07 08:20:12;;;;;;;11.23;8.00;;;8.70;99.90;;;;;;5051527;28;20441;-71
2021/11/07 08:22:41;;;;;;;12.00;8.80;;;8.90;99.90;;;;;;5051556;28;20202;-70
2021/11/07 08:25:11;;;;;;;11.90;8.10;;;9.40;99.90;;;;;;5051395;28;20214;-71
2021/11/07 08:27:40;;;;;;;12.50;8.27;;;9.80;99.90;;;;;;5047878;28;20314;-70
2021/11/07 08:30:09;;;;;;;13.37;7.93;;;10.00;99.90;;;;;;5052271;28;20245;-70
2021/11/07 08:32:36;;;;;;;10.20;7.27;;;10.00;99.90;;;;;;5049482;28;20929;-70
2021/11/07 08:35:05;;;;;;;10.27;7.57;;;10.00;99.90;;;;;;5051188;28;20198;-70
2021/11/07 08:37:36;;;;;;;10.53;7.67;;;9.90;99.90;;;;;;5051794;28;20213;-71
2021/11/07 08:40:06;;;;;;;10.13;7.20;;;9.80;99.90;;;;;;5049203;28;20194;-71
2021/11/07 08:42:36;;;;;;;10.40;6.83;;;9.70;99.90;;;;;;5052931;28;20667;-69
2021/11/07 09:01:54;;;;;;;12.47;6.80;;;9.20;99.90;;;;;;5051448;28;20205;-69
2021/11/07 09:04:24;;;;;;;10.50;6.37;;;9.20;99.90;;;;;;5052514;28;20296;-70
2021/11/07 09:07:12;;;;;;;8.87;6.67;;;9.20;99.90;;;;;;5052609;28;20247;-70
2021/11/07 09:09:42;;;;;;;9.03;6.23;;;9.20;99.90;;;;;;5048903;28;20241;-69
2021/11/07 09:12:10;;;;;;;10.73;6.80;;;9.20;99.90;;;;;;5044515;28;20263;-69
2021/11/07 09:14:39;;;;;;;9.93;5.77;;;9.10;99.90;;;;;;5063544;28;20661;-70
2021/11/07 09:17:08;;;;;;;9.43;6.60;;;9.20;99.90;;;;;;5051474;28;20206;-68
2021/11/07 09:19:37;;;;;;;9.70;6.20;;;9.30;99.90;;;;;;5050816;28;20209;-69
2021/11/07 09:22:08;;;;;;;9.03;5.97;;;9.30;99.90;;;;;;5050179;28;20396;-71
2021/11/07 09:24:39;;;;;;;8.17;5.97;;;9.40;99.90;;;;;;5058766;28;20201;-70
2021/11/07 09:27:14;;;;;;;8.43;5.40;;;9.40;99.90;;;;;;5052488;28;20204;-70
2021/11/07 09:29:52;;;;;;;9.83;6.73;;;9.50;99.90;;;;;;5051237;28;20632;-69
2021/11/07 09:32:29;;;;;;;9.83;6.07;;;9.40;99.90;;;;;;5050738;28;20201;-71
2021/11/07 09:34:59;;;;;;;9.37;6.70;;;9.40;99.90;;;;;;5050713;28;20212;-70
2021/11/07 09:37:32;;;;;;;11.40;7.03;;;9.50;99.90;;;;;;5051550;28;20238;-71
2021/11/07 09:40:00;;;;;;;10.73;6.40;;;9.50;99.90;;;;;;5049443;28;20248;-71
2021/11/07 09:42:36;;;;;;;9.50;5.87;;;9.50;99.90;;;;;;5051294;28;20658;-70
2021/11/07 09:45:12;;;;;;;8.37;5.60;;;9.70;99.90;;;;;;5049594;28;20198;-70
2021/11/07 09:47:45;;;;;;;8.47;5.97;;;10.30;99.90;;;;;;5054836;28;20218;-71
2021/11/07 09:50:14;;;;;;;8.43;5.80;;;11.10;99.90;;;;;;5054729;28;20209;-71
2021/11/07 09:52:46;;;;;;;13.23;6.53;;;11.40;99.40;;;;;;5053745;28;20296;-72
2021/11/07 09:55:13;;;;;;;7.93;5.80;;;11.50;98.30;;;;;;5044325;28;20245;-72
2021/11/07 09:57:43;;;;;;;9.40;5.97;;;11.40;98.20;;;;;;5054835;28;20283;-72
2021/11/07 10:00:15;;;;;;;9.47;5.57;;;11.30;97.60;;;;;;5050383;28;20213;-71
2021/11/07 10:02:42;;;;;;;8.63;5.23;;;11.20;97.70;;;;;;5049856;28;20717;-72
2021/11/07 10:05:11;;;;;;;6.73;4.90;;;11.10;97.70;;;;;;5054255;28;20205;-72
2021/11/07 10:07:40;;;;;;;5.80;4.40;;;11.00;97.60;;;;;;5046022;28;20287;-72
2021/11/07 10:10:18;;;;;;;7.83;4.90;;;11.00;97.30;;;;;;5051815;28;20202;-71
2021/11/07 10:12:50;;;;;;;8.20;5.33;;;10.90;97.00;;;;;;5053679;28;20271;-71
2021/11/07 10:15:24;;;;;;;8.57;5.13;;;10.80;97.10;;;;;;5051154;28;20605;-69
2021/11/07 10:17:54;;;;;;;7.57;5.13;;;10.80;97.30;;;;;;5052258;28;20276;-72
2021/11/07 10:20:26;;;;;;;7.07;4.93;;;10.90;97.50;;;;;;5055702;28;20197;-72
2021/11/07 10:22:59;;;;;;;5.43;4.50;;;11.30;99.90;;;;;;5063374;28;20201;-72
2021/11/07 10:25:34;;;;;;;8.13;4.77;;;12.00;96.30;;;;;;5054472;28;20210;-72
2021/11/07 10:28:17;;;;;;;5.23;4.30;;;12.50;95.30;;;;;;5055593;28;20282;-72
2021/11/07 10:30:46;;;;;;;7.13;4.83;;;14.00;95.80;;;;;;5051898;28;20237;-71
2021/11/07 10:33:23;;;;;;;7.07;4.43;;;15.70;90.40;;;;;;5054266;28;20202;-72
2021/11/07 10:44:40;;;;;;;6.27;4.60;;;14.40;77.70;;;;;;5043509;28;20202;-68
2021/11/07 10:47:25;;;;;;;6.30;4.87;;;13.80;78.50;;;;;;5048207;28;20702;-68
2021/11/07 10:52:39;;;;;;;7.07;4.40;;;12.90;81.20;;;;;;5047288;28;20263;-68
2021/11/07 10:55:07;;;;;;;7.00;5.03;;;12.50;82.40;;;;;;5051843;28;20675;-68
2021/11/07 10:57:35;;;;;;;8.33;5.03;;;12.20;83.80;;;;;;5052124;28;20236;-68
2021/11/07 11:00:17;;;;;;;7.63;5.10;;;12.10;85.10;;;;;;5051612;28;20640;-69
2021/11/07 11:02:46;;;;;;;6.97;4.80;;;11.80;86.00;;;;;;5046950;28;20750;-71
2021/11/07 11:05:16;;;;;;;9.67;5.30;;;11.60;86.90;;;;;;5054374;28;20202;-74
2021/11/07 11:08:07;;;;;;;7.73;5.33;;;11.60;88.00;;;;;;5053846;28;20701;-71
2021/11/07 11:10:43;;;;;;;6.47;4.53;;;11.50;88.70;;;;;;5053409;28;20210;-71
2021/11/07 11:13:17;;;;;;;8.00;5.17;;;11.40;89.50;;;;;;5059784;28;20665;-71
2021/11/07 11:16:15;;;;;;;6.93;4.63;;;11.40;90.10;;;;;;5053562;28;20237;-72
2021/11/07 11:24:40;;;;;;;7.27;4.90;;;11.30;90.10;;;;;;5053638;28;20201;-72
2021/11/07 11:27:16;;;;;;;7.20;5.67;;;11.30;90.30;;;;;;5052907;28;20631;-72
2021/11/07 11:29:54;;;;;;;6.50;4.67;;;11.30;90.00;;;;;;5050348;28;20714;-72
2021/11/07 11:32:31;;;;;;;6.10;4.53;;;11.20;89.70;;;;;;5054230;28;20300;-72
2021/11/07 11:35:01;;;;;;;8.60;4.60;;;11.20;89.60;;;;;;5053315;28;20284;-73
2021/11/07 11:37:36;;;;;;;5.60;4.60;;;11.10;89.70;;;;;;5052575;28;20224;-73
2021/11/07 11:40:08;;;;;;;7.23;5.30;;;11.10;89.80;;;;;;5052630;28;20715;-72
2021/11/07 11:42:41;;;;;;;9.30;5.03;;;11.00;89.80;;;;;;5052645;28;20297;-72
2021/11/07 11:45:09;;;;;;;6.70;5.27;;;11.00;90.00;;;;;;5052055;28;20203;-72
2021/11/07 11:48:16;;;;;;;7.03;4.43;;;11.00;90.20;;;;;;5051760;28;20206;-71
2021/11/07 11:51:02;;;;;;;7.73;4.93;;;11.00;90.20;;;;;;5052581;28;20216;-72
2021/11/07 11:53:56;;;;;;;8.93;4.50;;;11.00;90.30;;;;;;5052108;28;20206;-72
2021/11/07 11:56:31;;;;;;;8.57;4.73;;;11.00;90.30;;;;;;5047865;28;20399;-72
2021/11/07 11:59:01;;;;;;;5.87;4.57;;;10.90;90.30;;;;;;5037821;28;20214;-73
2021/11/07 12:01:32;;;;;;;6.20;4.50;;;10.90;90.50;;;;;;5035481;28;20205;-72
2021/11/07 12:04:13;;;;;;;6.43;4.70;;;10.90;90.70;;;;;;5044110;28;20209;-72
2021/11/07 12:06:47;;;;;;;5.30;4.13;;;10.80;90.80;;;;;;5045942;28;20565;-73
2021/11/07 12:12:17;;;;;;;7.87;4.93;;;10.80;91.10;;;;;;5049588;28;20238;-72
2021/11/07 12:15:01;;;;;;;8.47;5.03;;;10.80;91.20;;;;;;5046279;28;20216;-72
2021/11/07 12:17:30;;;;;;;6.90;4.43;;;10.70;91.30;;;;;;5052140;28;20263;-72
2021/11/07 12:20:00;;;;;;;8.03;5.07;;;10.70;91.50;;;;;;5052446;28;20576;-73
2021/11/07 12:22:31;;;;;;;6.10;4.37;;;10.70;91.60;;;;;;5052660;28;20704;-73
2021/11/07 12:25:08;;;;;;;6.13;4.17;;;10.70;91.70;;;;;;5052976;28;20208;-73
2021/11/07 12:27:41;;;;;;;6.57;4.27;;;10.70;91.90;;;;;;5052499;28;20210;-72
2021/11/07 12:30:24;;;;;;;5.67;4.37;;;10.60;91.90;;;;;;5052128;28;20237;-72
2021/11/07 12:33:01;;;;;;;5.10;4.47;;;10.60;92.20;;;;;;5052241;28;20580;-72
2021/11/07 12:35:35;;;;;;;6.27;4.67;;;10.50;92.30;;;;;;5051281;28;20706;-72
2021/11/07 12:40:58;;;;;;;7.30;4.43;;;10.50;92.40;;;;;;5042618;28;20265;-72
2021/11/07 12:43:38;;;;;;;8.63;4.80;;;10.50;92.70;;;;;;5046076;28;20209;-72
2021/11/07 12:46:26;;;;;;;5.73;4.23;;;10.50;92.90;;;;;;5035197;28;20586;-72
2021/11/07 12:48:55;;;;;;;7.53;4.30;;;10.50;93.10;;;;;;5039556;28;20216;-73
2021/11/07 12:51:36;;;;;;;6.80;4.23;;;10.50;93.20;;;;;;5042385;28;20570;-72
2021/11/07 12:54:09;;;;;;;7.00;4.57;;;10.50;93.40;;;;;;5038543;28;20233;-72
2021/11/07 12:56:55;;;;;;;6.40;4.80;;;10.50;93.40;;;;;;5034832;28;20329;-71
2021/11/07 12:59:35;;;;;;;7.23;4.93;;;10.50;93.60;;;;;;5032132;28;20723;-73
2021/11/07 13:02:06;;;;;;;7.30;4.30;;;10.40;93.70;;;;;;5031578;28;20210;-71
2021/11/07 13:04:40;;;;;;;7.30;4.60;;;10.50;93.70;;;;;;5046790;28;20206;-72
2021/11/07 13:07:11;;;;;;;6.87;4.43;;;10.40;93.70;;;;;;5045333;28;20205;-72
2021/11/07 13:09:44;;;;;;;7.70;4.67;;;10.40;93.80;;;;;;5046491;28;20221;-71
2021/11/07 13:12:20;;;;;;;8.07;4.37;;;10.40;93.90;;;;;;5049103;28;20205;-70
2021/11/07 13:15:18;;;;;;;6.60;4.43;;;10.40;94.00;;;;;;5051075;28;20297;-71
2021/11/07 13:26:48;;;;;;;7.03;4.90;;;10.30;94.00;;;;;;5044466;28;20202;-69
2021/11/07 13:29:29;;;;;;;7.33;5.33;;;10.30;93.90;;;;;;5049524;28;20252;-71
2021/11/07 13:32:02;;;;;;;6.13;4.40;;;10.30;93.90;;;;;;5052732;28;20291;-71
2021/11/07 13:34:30;;;;;;;5.83;4.57;;;10.30;94.30;;;;;;5054131;28;20318;-72
2021/11/07 13:36:58;;;;;;;6.87;4.60;;;10.30;94.00;;;;;;5044561;28;20210;-70
2021/11/07 13:39:30;;;;;;;8.07;5.30;;;10.30;93.80;;;;;;5045240;28;20608;-70
2021/11/07 13:42:00;;;;;;;6.43;4.30;;;10.20;93.90;;;;;;5049657;28;20205;-70
2021/11/07 13:44:29;;;;;;;7.60;4.73;;;10.20;93.90;;;;;;5044826;28;20225;-70
2021/11/07 13:47:01;;;;;;;8.40;5.10;;;10.20;93.90;;;;;;5050924;28;20260;-69
2021/11/07 13:49:28;;;;;;;6.13;4.23;;;10.20;94.00;;;;;;5049326;28;20225;-70
2021/11/07 13:51:57;;;;;;;7.70;4.57;;;10.20;94.10;;;;;;5051943;28;20301;-70
2021/11/07 13:54:24;;;;;;;7.37;5.10;;;10.20;94.20;;;;;;5050847;28;20681;-68
2021/11/07 13:56:54;;;;;;;8.53;5.30;;;10.20;94.30;;;;;;5051857;28;20773;-70
2021/11/07 13:59:32;;;;;;;7.03;5.00;;;10.10;94.30;;;;;;5051307;28;20214;-70